Station: Mount William  

  Atmospheric Gas Attenuation - ITU Rec 676-11   ----------------- dB/100km -----------------
Date Time Temp RH % AH g/m3 Dew Point Wind Direction Speed kph Gust kph Barometer mB Rainfall Since 9am 24GHz 47GHz 76GHz 122GHz 134GHz 241GHz
08/05 12:30 6.5 100 7.5 6.5 33 54 1013.1 1.4 17.6 26.2 38.9 101.9 92.5 316.7
08/05 12:20 6.5 100 7.5 6.5 33 54 1013.1 1.4 17.6 26.2 38.9 101.9 92.5 316.7
08/05 12:10 6.7 100 7.6 6.7 32 43 1013.1 1.4 17.8 26.3 39.2 102.8 93.6 320.8
08/05 12:00 6.5 100 7.5 6.5 37 63 1013.1 1.4 17.6 26.2 38.9 101.9 92.5 316.7
08/05 11:50 6.6 100 7.55 6.6 33 48 1013.1 1.4 17.7 26.3 39.0 102.4 93.0 318.8
08/05 11:40 6.5 100 7.5 6.5 35 48 1013.1 1.4 17.6 26.2 38.9 101.9 92.5 316.7
08/05 11:30 6.4 100 7.46 6.4 43 67 1013.1 1.2 17.5 26.2 38.8 101.6 92.0 315.2
08/05 11:20 6.4 100 7.46 6.4 43 56 1013.1 1.2 17.5 26.2 38.8 101.6 92.0 315.2
08/05 11:10 6.3 100 7.41 6.3 37 52 1013.1 1.2 17.4 26.1 38.6 101.2 91.4 313.1
08/05 11:00 6.3 100 7.41 6.3 44 63 1013.1 1 17.4 26.1 38.6 101.2 91.4 313.1
08/05 10:50 6.2 100 7.36 6.2 44 63 1013.1 1 17.3 26.1 38.4 100.7 90.9 311.1
08/05 10:40 6.2 100 7.36 6.2 50 67 1013.1 1 17.3 26.1 38.4 100.7 90.9 311.1
08/05 10:30 6.1 100 7.31 6.1 44 65 1013.1 1 17.2 26.0 38.3 100.3 90.3 309.0
08/05 10:20 6 100 7.26 6 52 61 1013.1 1 17.1 25.9 38.1 99.9 89.7 307.0
08/05 10:10 6.1 100 7.31 6.1 35 50 1013.1 1 17.2 26.0 38.3 100.3 90.3 309.0
08/05 10:00 5.9 100 7.22 5.9 43 65 1013.1 0.8 17.0 25.9 38.0 99.5 89.3 305.4
08/05 09:50 6 100 7.26 6 41 56 1013.1 0.8 17.1 25.9 38.1 99.9 89.7 307.0
08/05 09:40 5.9 100 7.22 5.9 39 52 1013.1 0.8 17.0 25.9 38.0 99.5 89.3 305.4
08/05 09:30 5.9 100 7.22 5.9 43 65 1013.1 0.6 17.0 25.9 38.0 99.5 89.3 305.4
08/05 09:20 5.9 100 7.22 5.9 41 54 1013.1 0.4 17.0 25.9 38.0 99.5 89.3 305.4
08/05 09:10 5.9 100 7.22 5.9 32 39 1013.1 0.4 17.0 25.9 38.0 99.5 89.3 305.4
08/05 09:00 5.8 100 7.17 5.8 37 59 1013.1 0.2 16.9 25.8 37.8 99.1 88.7 303.4
08/05 08:50 5.8 100 7.17 5.8 41 59 1013.1 11.4 16.9 25.8 37.8 99.1 88.7 303.4
08/05 08:40 5.7 100 7.12 5.7 39 48 1013.1 11.4 16.8 25.8 37.7 98.7 88.1 301.3
08/05 08:30 5.7 100 7.12 5.7 41 65 1013.1 11.2 16.8 25.8 37.7 98.7 88.1 301.3
08/05 08:20 5.6 100 7.07 5.6 50 59 1013.1 11.2 16.7 25.7 37.5 98.2 87.5 299.3
08/05 08:10 5.5 100 7.03 5.5 37 48 1013.1 11.2 16.6 25.7 37.4 97.9 87.1 297.7
08/05 08:00 5.5 100 7.03 5.5 44 67 1013.1 11.2 16.6 25.7 37.4 97.9 87.1 297.7
08/05 07:50 5.5 100 7.03 5.5 44 56 1013.1 11 16.6 25.7 37.4 97.9 87.1 297.7
08/05 07:40 5.5 100 7.03 5.5 39 61 1013.1 11 16.6 25.7 37.4 97.9 87.1 297.7
08/05 07:30 5.3 100 6.94 5.3 48 70 1013.1 10.8 16.4 25.6 37.1 97.1 86.0 294.1
08/05 07:20 5.4 100 6.98 5.4 44 56 1013.1 10.8 16.5 25.6 37.2 97.5 86.5 295.6
08/05 07:10 5.3 100 6.94 5.3 54 69 1013.1 10.6 16.4 25.6 37.1 97.1 86.0 294.1
08/05 07:00 5.3 100 6.94 5.3 54 70 1013.1 10.6 16.4 25.6 37.1 97.1 86.0 294.1
08/05 06:50 5.3 100 6.94 5.3 43 56 1013.1 10.4 16.4 25.6 37.1 97.1 86.0 294.1
08/05 06:40 5.2 100 6.89 5.2 46 57 1013.1 10.4 16.3 25.5 36.9 96.7 85.5 292.0
08/05 06:30 5.3 100 6.94 5.3 44 74 1013.1 10.4 16.4 25.6 37.1 97.1 86.0 294.1
08/05 06:20 5.2 100 6.89 5.2 50 74 1013.1 10.2 16.3 25.5 36.9 96.7 85.5 292.0
08/05 06:10 5.2 100 6.89 5.2 50 70 1013.1 10 16.3 25.5 36.9 96.7 85.5 292.0
08/05 06:00 5.1 100 6.85 5.1 54 80 1013.1 10 16.2 25.5 36.8 96.4 85.0 290.4
08/05 05:50 5.3 100 6.94 5.3 57 72 1013.1 10 16.4 25.6 37.1 97.1 86.0 294.1
08/05 05:40 5.4 100 6.98 5.4 41 54 1013.1 10 16.5 25.6 37.2 97.5 86.5 295.6
08/05 05:30 5.3 100 6.94 5.3 54 83 1013.1 9.8 16.4 25.6 37.1 97.1 86.0 294.1
08/05 05:20 5.5 100 7.03 5.5 46 67 1013.1 9.8 16.6 25.7 37.4 97.9 87.1 297.7
08/05 05:10 5.5 100 7.03 5.5 65 87 1013.1 9.6 16.6 25.7 37.4 97.9 87.1 297.7
08/05 05:00 5.6 100 7.07 5.6 46 80 1013.1 9.6 16.7 25.7 37.5 98.2 87.5 299.3
08/05 04:50 5.6 100 7.07 5.6 48 63 1013.1 9.6 16.7 25.7 37.5 98.2 87.5 299.3
08/05 04:40 5.6 100 7.07 5.6 32 44 1013.1 9.6 16.7 25.7 37.5 98.2 87.5 299.3
08/05 04:30 5.6 100 7.07 5.6 44 80 1013.1 9.4 16.7 25.7 37.5 98.2 87.5 299.3
08/05 04:20 5.7 100 7.12 5.7 48 67 1013.1 9.2 16.8 25.8 37.7 98.7 88.1 301.3
08/05 04:10 5.8 100 7.17 5.8 41 57 1013.1 9 16.9 25.8 37.8 99.1 88.7 303.4
08/05 04:00 5.7 100 7.12 5.7 46 82 1013.1 9 16.8 25.8 37.7 98.7 88.1 301.3
08/05 03:50 5.7 100 7.12 5.7 35 59 1013.1 8.8 16.8 25.8 37.7 98.7 88.1 301.3
08/05 03:40 5.7 100 7.12 5.7 46 65 1013.1 8.6 16.8 25.8 37.7 98.7 88.1 301.3
08/05 03:30 5.7 100 7.12 5.7 48 69 1013.1 8.2 16.8 25.8 37.7 98.7 88.1 301.3
08/05 03:20 5.7 100 7.12 5.7 52 65 1013.1 8.2 16.8 25.8 37.7 98.7 88.1 301.3
08/05 03:10 5.7 100 7.12 5.7 48 65 1013.1 8 16.8 25.8 37.7 98.7 88.1 301.3
08/05 03:00 5.8 100 7.17 5.8 57 76 1013.1 7.8 16.9 25.8 37.8 99.1 88.7 303.4
08/05 02:50 5.7 100 7.12 5.7 61 70 1013.1 7.6 16.8 25.8 37.7 98.7 88.1 301.3
08/05 02:40 5.7 100 7.12 5.7 52 67 1013.1 7.6 16.8 25.8 37.7 98.7 88.1 301.3
08/05 02:30 5.6 100 7.07 5.6 56 89 1013.1 7.6 16.7 25.7 37.5 98.2 87.5 299.3
08/05 02:20 5.6 100 7.07 5.6 61 70 1013.1 7.6 16.7 25.7 37.5 98.2 87.5 299.3
08/05 02:10 5.6 100 7.07 5.6 48 67 1013.1 7.4 16.7 25.7 37.5 98.2 87.5 299.3
08/05 02:00 5.6 100 7.07 5.6 46 78 1013.1 7.2 16.7 25.7 37.5 98.2 87.5 299.3
08/05 01:50 5.5 100 7.03 5.5 44 63 1013.1 7 16.6 25.7 37.4 97.9 87.1 297.7
08/05 01:40 5.4 100 6.98 5.4 44 72 1013.1 7 16.5 25.6 37.2 97.5 86.5 295.6
08/05 01:30 5.4 100 6.98 5.4 43 61 1013.1 7 16.5 25.6 37.2 97.5 86.5 295.6
08/05 01:20 5.4 100 6.98 5.4 43 63 1013.1 6.8 16.5 25.6 37.2 97.5 86.5 295.6
08/05 01:10 5.3 100 6.94 5.3 50 63 1013.1 6.6 16.4 25.6 37.1 97.1 86.0 294.1
08/05 01:00 5.3 100 6.94 5.3 43 65 1013.1 6.2 16.4 25.6 37.1 97.1 86.0 294.1
08/05 00:50 5.2 100 6.89 5.2 41 59 1013.1 6.2 16.3 25.5 36.9 96.7 85.5 292.0
08/05 00:40 5.2 100 6.89 5.2 46 70 1013.1 5.8 16.3 25.5 36.9 96.7 85.5 292.0
08/05 00:30 5 100 6.8 5 44 67 1013.1 5.4 16.1 25.5 36.6 95.9 84.4 288.3
08/05 00:20 5 100 6.8 5 35 48 1013.1 5.4 16.1 25.5 36.6 95.9 84.4 288.3
08/05 00:10 4.9 100 6.76 4.9 56 61 1013.1 5 16.0 25.4 36.5 95.6 84.0 286.8
08/05 00:00 4.9 100 6.76 4.9 44 72 1013.1 4.4 16.0 25.4 36.5 95.6 84.0 286.8
07/05 23:50 4.8 100 6.71 4.8 54 80 1013.1 4.4 15.9 25.4 36.3 95.2 83.4 284.7
07/05 23:40 4.7 100 6.67 4.7 52 74 1013.1 4.2 15.8 25.3 36.2 94.8 82.9 283.1
07/05 23:30 4.6 100 6.62 4.6 44 72 1013.1 4 15.7 25.3 36.1 94.4 82.4 281.1
07/05 23:20 4.6 100 6.62 4.6 50 59 1013.1 3.8 15.7 25.3 36.1 94.4 82.4 281.1
07/05 23:10 4.6 100 6.62 4.6 37 57 1013.1 3.4 15.7 25.3 36.1 94.4 82.4 281.1
07/05 23:00 4.5 100 6.58 4.5 44 70 1013.1 3.2 15.7 25.2 35.9 94.1 81.9 279.5
07/05 22:50 4.5 100 6.58 4.5 43 56 1013.1 2.8 15.7 25.2 35.9 94.1 81.9 279.5
07/05 22:40 4.4 100 6.53 4.4 57 69 1013.1 2.6 15.6 25.2 35.8 93.6 81.3 277.4
07/05 22:30 4.3 100 6.49 4.3 56 74 1013.1 2.6 15.5 25.1 35.7 93.3 80.9 275.8
07/05 22:20 4.2 100 6.45 4.2 59 69 1013.1 2.6 15.4 25.1 35.5 93.0 80.4 274.2
07/05 22:10 4.1 100 6.41 4.1 57 70 1013.1 2.6 15.3 25.0 35.4 92.6 80.0 272.6
07/05 22:00 4.1 100 6.41 4.1 54 78 1013.1 2.6 15.3 25.0 35.4 92.6 80.0 272.6
07/05 21:50 4.1 100 6.41 4.1 61 78 1013.1 2.6 15.3 25.0 35.4 92.6 80.0 272.6
07/05 21:40 4 100 6.36 4 59 69 1013.1 2.4 15.2 25.0 35.2 92.2 79.4 270.5
07/05 21:30 3.9 100 6.32 3.9 54 78 1013.1 2.4 15.1 25.0 35.1 91.9 78.9 268.9
07/05 21:20 3.9 100 6.32 3.9 54 72 1013.1 2.2 15.1 25.0 35.1 91.9 78.9 268.9
07/05 21:10 3.8 100 6.28 3.8 50 65 1013.1 2 15.0 24.9 35.0 91.5 78.5 267.4
07/05 21:00 3.8 100 6.28 3.8 54 78 1013.1 1.6 15.0 24.9 35.0 91.5 78.5 267.4
07/05 20:50 3.7 100 6.24 3.7 50 65 1013.1 1.6 15.0 24.9 34.9 91.2 78.0 265.8
07/05 20:40 3.6 100 6.2 3.6 48 57 1013.1 1.4 14.9 24.8 34.7 90.9 77.6 264.2
07/05 20:30 3.5 100 6.15 3.5 54 82 1013.1 1.4 14.8 24.8 34.6 90.4 77.0 262.1
07/05 20:20 3.3 100 6.07 3.3 50 65 1013.1 1.4 14.6 24.7 34.3 89.8 76.1 258.9
07/05 20:10 3.3 100 6.07 3.3 54 67 1013.1 1.4 14.6 24.7 34.3 89.8 76.1 258.9
07/05 20:00 3.1 100 5.99 3.1 57 78 1013.1 1.4 14.4 24.6 34.1 89.1 75.2 255.7

Last Refresh: 08-May-2026 12:07:17

Bureau of Meteorology